Craig Beach, Ohio
Current Conditions -  °F | °C
As of 7:14 PM on Saturday 20 Dec 2014 (Local Time) from KPOV Reporting Station
NA  
Wind Chill: 29°   Ceiling: NA
Heat Index: 29°   Visibility: 10mi
Dew Point: 20°   Wind: 0mph
Humidity: 71%   Direction: NA
Pressure: 30.25"   Gusts: NA
Location:  41.099°N, 80.9784°W
Report Text: KPOV 210014Z AUTO 00000KT 10SM M02/M06 A3025 RMK AO2 T10181065
Loading
Personal Weather Stations






























Interactive Weather Map New forecast layout! Learn more

10-Day Weather Forecast

Advertisements
Track Severe Weather on mobile